Date,TemperatureHighF,TemperatureAvgF,TemperatureLowF,DewpointHighF,DewpointAvgF,DewpointLowF,HumidityHigh,HumidityAvg,HumidityLow,PressureMaxIn,PressureMinIn,WindSpeedMaxMPH,WindSpeedAvgMPH,GustSpeedMaxMPH,PrecipitationSumIn
2013-1-1,14.1,7.8,-2.6,10.1,2.9,-5.8,90,80,61,30.25,30.08,12,1,12,0.00
2013-1-2,21.2,15.7,12.2,15.6,12.4,9.8,92,87,77,30.08,29.99,12,1,12,0.00
2013-1-3,22.2,17.1,12.1,18.0,13.5,8.0,93,85,74,30.13,29.94,22,3,22,0.00
2013-1-4,35.7,20.0,10.3,23.7,14.5,8.0,90,80,55,30.15,29.93,16,2,18,0.02
2013-1-5,30.0,19.7,9.1,20.5,15.3,6.5,95,83,63,30.16,29.85,10,1,10,0.00
2013-1-6,25.8,21.4,11.9,24.0,18.8,9.5,93,89,80,30.19,29.89,12,0,12,0.00
2013-1-7,34.3,24.6,13.0,25.2,19.1,8.7,91,79,69,30.12,29.83,20,3,20,0.00
2013-1-8,38.1,25.3,10.2,29.2,20.8,7.9,96,84,61,30.07,29.75,17,2,18,0.01
2013-1-9,33.8,29.5,17.9,29.1,23.2,14.8,88,77,65,30.38,29.77,25,4,25,0.00
2013-1-10,38.9,28.9,16.8,31.7,19.4,14.1,95,71,40,30.42,29.83,17,1,17,0.01
2013-1-11,40.0,35.7,33.0,39.7,35.1,31.7,99,98,95,29.83,29.41,17,2,17,0.36
2013-1-12,42.5,26.4,12.9,42.2,22.8,7.8,100,86,79,29.97,29.35,25,4,25,0.03
2013-1-13,13.6,10.4,5.9,8.8,5.7,2.4,86,81,70,30.18,29.93,10,1,10,0.00
2013-1-14,10.8,5.4,0.6,5.1,1.4,-2.6,97,83,76,30.41,30.17,12,2,13,0.00
2013-1-15,24.9,15.3,1.0,16.5,8.6,-1.7,89,76,53,30.39,29.85,18,3,18,0.00
2013-1-16,26.3,21.0,10.9,23.5,15.6,4.6,94,80,67,30.12,29.58,23,4,23,0.00
2013-1-17,10.9,3.0,-4.1,4.8,-2.7,-7.8,85,77,60,30.40,30.12,13,1,13,0.00
2013-1-18,21.9,12.7,-5.0,20.1,10.0,-8.8,93,89,83,30.39,29.80,11,0,11,0.00
2013-1-19,20.2,20.0,20.0,18.0,17.9,17.8,92,91,91,29.82,29.80,2,0,2,0.00
2013-1-20,4.6,-2.8,-6.8,-2.1,-7.5,-10.7,85,80,70,30.25,30.18,11,0,11,0.00
2013-1-21,-6.8,-12.5,-16.1,-10.6,-18.0,-21.1,83,76,65,30.30,30.16,17,2,17,0.00
2013-1-22,-0.5,-10.0,-18.9,-10.1,-16.2,-23.4,92,74,63,30.42,30.28,11,1,11,0.00
2013-1-23,6.6,-4.0,-16.9,2.8,-8.2,-21.5,86,82,76,30.58,30.15,18,1,18,0.00
2013-1-24,5.8,-2.7,-15.5,4.1,-7.7,-19.8,96,79,68,30.73,30.34,9,0,9,0.00
2013-1-25,15.5,10.6,5.8,11.0,7.1,2.3,88,85,79,30.35,29.95,15,1,15,0.00
2013-1-26,21.2,14.1,7.9,13.2,9.1,4.8,88,81,69,30.40,30.23,14,1,14,0.00
2013-1-27,30.7,24.1,16.3,25.8,18.9,10.4,95,81,63,30.27,29.88,12,1,13,0.00
2013-1-28,33.3,28.1,25.1,29.8,26.4,23.6,97,93,85,29.92,29.75,9,0,9,0.00
2013-1-29,33.6,31.3,26.7,33.0,30.1,25.2,98,95,92,29.75,29.49,15,1,15,0.00
2013-1-30,26.6,18.5,10.9,25.1,16.0,7.8,94,90,86,29.63,29.46,13,1,13,0.00
2013-1-31,10.9,6.1,1.5,7.8,2.4,-2.2,92,84,77,30.09,29.55,10,2,22,0.00
2013-2-1,1.4,-4.7,-14.0,-2.3,-10.1,-18.1,84,77,68,30.25,30.09,12,2,12,0.00
2013-2-2,12.6,0.6,-13.0,3.5,-4.7,-17.1,88,78,64,30.22,30.01,11,0,11,0.00
2013-2-3,9.2,3.4,-4.1,2.2,-1.4,-7.9,92,80,69,30.06,29.93,16,1,16,0.00
2013-2-4,12.3,-1.1,-15.6,1.1,-7.0,-19.6,91,76,57,30.10,29.90,10,1,10,0.00
2013-2-5,19.4,10.2,-2.4,14.5,6.7,-5.8,91,86,72,30.11,29.72,15,1,15,0.00
2013-2-6,19.1,10.4,-6.0,17.4,7.6,-9.6,93,88,78,30.23,30.10,7,0,7,0.00
2013-2-7,21.5,19.2,14.3,19.8,17.3,11.0,93,92,88,30.30,30.14,13,1,13,0.00
2013-2-8,24.2,12.5,4.1,15.6,8.6,1.0,92,85,67,30.43,30.30,11,0,11,0.00
2013-2-9,24.8,15.7,2.6,17.7,12.2,-0.4,94,86,72,30.37,30.08,17,2,17,0.00
2013-2-10,31.6,25.9,19.1,30.6,24.7,17.7,97,95,94,30.10,29.30,17,1,17,0.00
2013-2-11,31.5,25.8,19.1,31.0,24.2,16.6,98,94,89,29.91,29.25,12,1,12,0.00
2013-2-12,22.3,18.1,13.7,19.8,15.5,11.5,96,89,84,29.97,29.76,11,1,11,0.00
2013-2-13,36.1,26.4,16.9,29.9,23.6,15.2,94,89,76,29.77,29.63,9,1,9,0.13
2013-2-14,28.0,22.1,14.7,26.2,18.8,10.2,93,87,81,30.05,29.64,13,1,14,0.00
2013-2-15,15.1,9.3,-1.2,10.9,4.7,-4.4,89,81,64,30.23,30.05,15,1,15,0.00
2013-2-16,13.8,1.0,-11.9,6.8,-3.6,-16.0,93,81,62,30.24,30.18,10,0,10,0.00
2013-2-17,22.4,4.4,-18.7,11.1,-3.7,-23.2,92,70,51,30.24,29.92,16,2,16,0.00
2013-2-18,31.2,25.4,17.8,27.0,21.1,11.2,94,84,75,29.92,29.50,14,1,14,0.00
2013-2-19,25.3,9.3,4.7,23.6,5.5,-0.6,93,84,75,30.22,29.52,23,3,23,0.00
2013-2-20,16.5,9.2,0.1,10.3,5.0,-3.1,88,83,73,30.52,30.22,10,1,14,0.00
2013-2-21,26.0,14.2,0.2,17.3,10.4,-2.8,92,85,68,30.55,30.22,14,2,14,0.00
2013-2-22,24.9,20.7,18.1,22.8,18.7,15.8,93,92,90,30.22,29.81,12,1,12,0.00
2013-2-23,29.1,21.7,12.1,26.4,19.7,9.8,95,92,87,29.91,29.78,9,0,9,0.00
2013-2-24,28.4,23.7,15.9,24.5,21.0,14.0,95,90,80,30.12,29.91,6,0,6,0.00
2013-2-25,32.6,26.3,16.7,27.0,23.4,15.0,95,89,76,30.15,30.07,15,1,15,0.00
2013-2-26,38.3,28.1,17.1,28.0,23.4,15.2,96,83,62,30.11,29.89,17,2,17,0.18
2013-2-27,31.6,28.6,26.7,27.0,24.8,23.4,89,86,80,29.95,29.82,17,3,17,0.00
2013-2-28,27.6,22.6,17.3,24.5,19.0,13.8,92,86,79,30.25,29.95,12,2,17,0.00
2013-3-1,26.5,18.0,7.8,14.5,11.3,4.7,87,76,45,30.38,30.25,13,2,13,0.00
2013-3-2,27.7,13.3,-1.4,14.6,6.5,-5.1,95,75,48,30.36,30.22,12,1,12,0.01
2013-3-3,30.6,11.0,-10.0,12.5,2.0,-14.3,92,70,38,30.24,30.13,10,0,10,0.00
2013-3-4,32.4,19.1,1.9,16.8,9.3,-1.2,89,68,41,30.20,30.10,13,1,13,0.00
2013-3-5,28.2,23.0,20.7,20.0,15.8,10.6,92,74,54,30.25,30.08,14,2,14,0.00
2013-3-6,29.1,21.3,11.5,19.4,16.6,8.5,93,82,61,30.35,30.24,10,1,10,0.05
2013-3-7,31.2,20.0,12.3,19.8,14.3,9.2,92,79,59,30.45,30.34,10,0,10,0.06
2013-3-8,40.3,27.4,12.8,26.6,19.8,9.9,90,74,54,30.44,30.23,19,2,19,0.11
2013-3-9,35.6,31.2,27.6,32.2,28.3,22.6,97,89,78,30.23,29.77,14,1,14,0.02
2013-3-10,33.1,30.9,26.3,32.3,29.0,24.2,97,93,86,29.94,29.76,16,2,16,0.11
2013-3-11,27.2,23.8,18.6,26.4,21.9,16.4,99,92,89,29.85,29.66,14,1,15,0.00
2013-3-12,22.7,19.0,16.4,18.9,16.2,13.3,92,89,81,30.06,29.73,15,1,15,0.00
2013-3-13,29.8,18.1,6.9,15.5,10.4,3.7,89,73,40,30.29,30.06,13,1,13,0.01
2013-3-14,35.7,18.5,-3.8,27.3,12.2,-7.3,93,78,49,30.29,30.01,14,2,14,0.00
2013-3-15,30.0,24.5,12.2,27.4,18.6,9.1,90,79,61,30.02,29.92,12,2,12,0.00
2013-3-16,21.6,14.9,9.4,14.1,9.3,3.9,88,79,66,30.21,29.97,14,1,14,0.00
2013-3-17,26.2,12.6,-7.1,9.6,1.8,-11.0,90,65,36,30.31,30.06,12,1,13,0.00
2013-3-18,27.0,21.6,15.7,25.0,18.1,9.9,93,86,73,30.06,29.51,16,2,16,0.00
2013-3-19,24.3,17.5,11.9,14.4,10.8,6.8,90,76,55,29.97,29.52,23,4,23,0.00
2013-3-20,17.2,11.8,3.3,10.1,5.7,-0.2,86,76,61,30.09,29.95,20,2,20,0.00
2013-3-21,26.9,16.9,5.0,16.2,11.5,1.3,89,80,60,30.08,30.03,10,1,11,0.00
2013-3-22,30.4,16.4,-3.2,23.7,12.0,-6.7,99,83,72,30.14,30.06,10,1,10,0.00
2013-3-23,30.2,24.1,14.6,23.1,19.6,12.2,93,83,73,30.20,30.12,10,0,10,0.00
2013-3-24,30.4,24.8,16.1,24.3,20.0,13.3,92,82,72,30.15,29.97,13,1,13,0.00
2013-3-25,32.3,24.0,12.9,24.7,19.4,10.8,95,83,66,30.19,30.00,14,1,14,0.00
2013-3-26,35.5,28.7,17.4,27.5,22.8,15.2,100,79,58,30.27,30.18,10,0,10,0.01
2013-3-27,39.8,31.7,21.0,23.0,20.1,14.3,81,63,43,30.31,30.26,13,1,13,0.19
2013-3-28,44.5,28.1,10.3,22.6,16.9,7.9,91,66,38,30.35,30.28,13,1,13,0.07
2013-3-29,48.7,33.2,13.1,27.3,19.7,10.2,92,62,33,30.33,30.14,16,1,16,0.00
2013-3-30,38.7,34.8,28.7,37.9,31.9,22.2,100,90,64,30.14,29.75,14,1,14,0.33
2013-3-31,35.7,30.0,20.8,35.2,24.3,11.4,98,81,51,29.93,29.63,17,2,22,0.01
2013-4-1,27.7,21.8,17.5,16.4,11.4,7.4,88,65,44,30.14,29.93,21,2,21,0.01
2013-4-2,32.5,22.7,12.6,16.4,10.8,6.9,84,62,36,30.34,30.14,17,1,17,0.00
2013-4-3,40.2,24.9,4.7,20.1,10.2,1.4,90,58,30,30.46,30.10,17,3,17,0.00
2013-4-4,45.1,37.2,25.7,31.5,24.5,19.1,79,61,42,30.10,29.94,20,3,20,0.00
2013-4-5,37.5,29.3,18.0,25.5,17.2,12.9,89,63,37,30.26,30.10,12,1,12,0.00
2013-4-6,37.9,32.8,28.9,35.4,30.5,25.1,96,91,75,30.11,29.56,15,1,15,0.30
2013-4-7,39.3,32.5,29.2,32.4,29.5,27.3,95,89,74,29.94,29.59,10,1,10,0.15
2013-4-8,37.9,34.4,29.6,36.9,33.5,28.4,97,96,95,30.04,29.79,7,0,7,0.76
2013-4-9,36.2,33.3,29.5,33.4,28.6,17.5,98,84,59,30.19,30.02,16,1,16,0.00
2013-4-10,39.7,32.7,26.7,23.5,19.4,13.7,84,59,38,30.22,30.07,16,2,17,0.00
2013-4-11,34.1,29.6,25.3,24.8,21.3,16.4,93,72,52,30.08,29.77,21,4,21,0.01
2013-4-12,31.9,27.5,24.9,28.0,25.1,23.1,100,91,83,29.78,29.68,13,1,13,0.10
2013-4-13,33.4,26.5,17.1,27.9,22.7,14.7,94,86,69,29.99,29.74,11,1,15,0.15
2013-4-14,38.6,26.4,11.0,31.2,22.3,8.5,96,85,60,30.05,29.71,15,1,16,0.08
2013-4-15,40.7,35.0,32.3,34.4,30.1,26.3,97,83,60,29.86,29.59,24,4,24,0.50
2013-4-16,42.5,35.5,27.6,31.5,28.3,24.1,92,75,56,30.37,29.85,14,2,14,0.31
2013-4-17,40.0,33.2,24.9,29.9,27.1,23.0,94,79,62,30.40,30.02,11,1,11,0.00
2013-4-18,33.0,32.1,31.3,31.9,31.0,29.8,96,96,93,30.02,29.60,12,1,15,0.16
2013-4-19,25.9,23.4,19.8,24.2,21.1,17.6,94,91,86,29.91,29.24,17,2,17,0.00
2013-4-20,32.6,22.0,9.2,23.0,16.4,6.9,92,80,55,30.42,29.91,11,0,11,0.13
2013-4-21,35.9,29.0,17.1,31.6,25.1,14.7,93,85,72,30.44,30.16,22,3,22,0.20
2013-4-22,45.1,36.2,29.6,36.5,33.6,28.4,97,91,66,30.22,30.06,10,1,16,0.50
2013-4-23,35.4,30.2,20.7,30.3,27.4,18.6,96,89,69,30.06,29.93,15,1,15,0.15
2013-4-24,45.4,31.0,13.5,32.0,22.6,11.4,100,73,48,30.01,29.88,19,2,19,0.38
2013-4-25,46.0,37.1,29.3,31.3,27.2,20.3,95,70,36,30.19,29.91,14,2,16,0.04
2013-4-26,62.0,45.3,30.2,40.8,34.4,25.4,95,68,45,30.19,30.05,15,2,15,0.11
2013-4-27,66.3,49.8,30.5,45.4,38.1,29.0,95,68,38,30.13,29.93,13,1,13,0.00
2013-4-28,64.5,53.0,40.0,47.0,43.1,38.1,96,72,45,29.93,29.70,17,2,17,0.07
2013-4-29,67.8,52.8,42.3,52.7,47.5,41.5,100,84,53,29.77,29.64,12,1,12,0.31
2013-4-30,78.1,59.7,42.7,58.8,48.9,39.6,100,72,37,29.84,29.46,14,2,21,0.00
2013-5-1,52.4,40.3,32.0,41.0,36.0,29.9,95,85,53,30.44,29.83,10,0,10,0.05
2013-5-2,32.3,29.2,27.0,31.3,27.8,25.2,96,94,93,30.50,30.41,15,0,15,0.06
2013-5-3,31.1,29.0,26.9,29.8,27.5,25.4,96,94,93,30.41,30.20,14,1,14,0.00
2013-5-4,50.1,37.2,30.1,42.9,34.7,29.1,98,91,75,30.22,30.14,9,1,9,0.72
2013-5-5,65.0,44.6,31.7,47.0,38.0,31.0,98,80,51,30.20,30.08,10,0,10,0.00
2013-5-6,73.4,51.6,30.8,47.2,38.6,29.5,100,68,24,30.12,30.00,12,1,12,0.00
2013-5-7,75.3,56.4,35.0,46.0,40.1,33.2,96,61,26,30.07,29.95,11,1,11,0.00
2013-5-8,77.0,59.8,39.7,47.0,42.3,36.7,92,57,28,30.00,29.91,12,1,12,0.00
2013-5-9,54.4,43.7,34.0,43.8,39.1,30.6,96,84,65,30.13,29.93,15,2,15,0.27
2013-5-10,59.4,43.3,30.2,36.3,29.5,24.6,92,63,28,30.13,29.87,13,2,13,0.00
2013-5-11,41.9,36.7,31.0,35.6,30.7,25.8,93,79,56,30.03,29.80,23,2,23,0.08
2013-5-12,45.6,35.0,26.4,29.1,23.7,19.0,93,66,35,30.14,30.02,17,2,17,0.04
2013-5-13,56.2,42.3,23.2,33.4,24.9,19.0,91,54,27,30.16,29.77,15,2,15,0.00
2013-5-14,80.1,59.9,40.1,51.3,42.8,32.1,82,55,32,29.77,29.40,19,2,19,0.00
2013-5-15,74.8,63.7,52.5,48.0,42.3,37.7,75,48,28,29.76,29.47,22,3,23,0.00
2013-5-16,69.8,58.4,44.4,44.3,37.5,29.5,85,50,25,30.02,29.75,13,1,13,0.00
2013-5-17,71.7,57.4,44.3,51.5,43.2,35.1,80,61,36,30.09,30.00,15,1,15,0.00
2013-5-18,70.5,57.9,49.6,61.8,54.3,48.2,99,88,70,30.05,29.86,13,1,13,0.93
2013-5-19,82.3,69.6,59.0,64.9,61.7,58.2,98,78,51,29.87,29.65,14,1,15,0.03
2013-5-20,75.8,67.5,56.0,61.7,59.1,54.9,97,76,53,29.61,29.53,20,2,20,0.33
2013-5-21,66.7,58.4,48.6,62.3,56.1,47.4,100,93,77,29.68,29.50,10,1,10,0.05
2013-5-22,51.0,46.7,42.0,48.0,45.2,39.3,98,95,87,29.99,29.67,18,2,18,0.02
2013-5-23,49.5,41.1,33.4,39.5,32.8,28.2,92,74,48,30.36,29.99,19,2,19,0.02
2013-5-24,64.5,47.1,29.2,40.7,33.4,27.7,98,64,31,30.45,30.28,11,1,11,0.25
2013-5-25,66.6,54.5,41.1,44.7,40.4,37.3,90,62,36,30.35,30.23,14,1,14,0.00
2013-5-26,68.7,54.5,37.7,42.1,37.0,30.6,95,57,25,30.32,30.13,15,1,15,0.00
2013-5-27,70.5,56.7,41.0,44.9,39.8,35.4,85,56,33,30.16,29.89,17,2,17,0.00
2013-5-28,58.5,55.4,51.9,53.5,49.1,43.0,94,80,61,29.89,29.68,10,0,10,0.00
2013-5-29,78.6,62.8,54.4,64.8,57.2,52.8,98,84,52,29.82,29.72,14,1,14,0.33
2013-5-30,80.0,67.2,60.3,68.2,64.1,59.7,99,91,62,29.74,29.57,17,1,17,0.15
2013-5-31,77.2,67.7,60.8,65.3,60.2,57.6,97,79,51,29.61,29.52,22,3,22,0.04
2013-6-5,50.2,48.4,44.3,49.7,47.6,43.0,98,97,93,30.12,30.01,13,1,13,0.66
2013-6-6,54.0,50.1,47.1,50.8,48.1,46.3,98,93,83,30.03,30.00,10,0,10,0.18
2013-6-7,62.6,52.8,40.0,51.1,47.0,39.0,100,82,60,30.04,29.91,8,0,10,0.00
2013-6-8,69.5,58.5,49.1,53.5,50.3,47.3,100,77,49,29.98,29.91,13,1,13,0.00
2013-6-9,66.2,56.4,45.4,57.3,52.1,44.3,99,86,69,30.00,29.85,11,0,11,0.01
2013-6-10,75.3,65.6,56.2,64.2,59.0,54.4,95,80,57,29.85,29.74,12,1,12,0.00
2013-6-11,77.2,65.1,52.0,63.2,56.6,48.7,100,77,45,29.84,29.76,11,1,11,0.00
2013-6-12,78.8,63.9,47.4,58.6,51.2,45.9,99,68,40,29.87,29.72,12,0,12,0.00
2013-6-13,68.7,59.2,50.8,54.7,51.3,48.1,92,76,55,30.10,29.81,14,1,14,0.00
2013-6-14,75.3,60.4,42.4,58.1,48.4,41.3,99,69,36,30.14,29.92,14,1,14,0.00
2013-6-15,66.0,62.1,58.2,64.4,59.8,54.0,99,93,77,29.94,29.75,8,0,8,0.26
2013-6-16,77.8,65.4,55.3,59.8,55.6,50.0,100,75,39,29.84,29.76,34,2,34,0.05
2013-6-25,84.1,78.0,66.3,69.2,66.4,62.1,95,69,49,29.74,29.69,7,0,7,0.00
2013-6-26,83.1,71.3,61.4,72.5,67.4,60.4,100,89,65,29.70,29.62,14,1,14,0.00
2013-7-1,77.5,69.8,52.4,57.7,54.0,48.5,88,59,41,30.14,30.12,12,1,12,0.00
2013-7-2,77.5,61.7,44.6,54.7,49.3,41.9,98,68,30,30.15,30.03,4,0,10,0.00
2013-7-3,78.5,63.8,47.4,58.7,51.4,46.1,99,69,34,30.06,29.93,10,1,10,0.00
2013-7-4,81.1,71.0,62.7,63.0,60.0,54.9,88,70,43,29.95,29.85,19,2,19,0.00
2013-7-5,83.3,74.1,61.4,63.2,60.1,56.7,90,64,42,29.91,29.81,19,2,19,0.00
2013-7-6,87.3,76.2,67.7,70.3,64.9,61.5,97,70,46,29.86,29.79,14,2,16,0.04
2013-7-7,75.0,71.7,67.4,67.6,66.7,66.2,97,85,76,29.83,29.79,12,0,12,0.15
2013-7-8,78.7,70.7,64.4,71.3,67.1,63.2,97,89,75,29.93,29.89,6,0,7,0.05
2013-7-9,74.4,68.3,61.5,71.3,67.0,60.9,100,96,88,29.93,29.66,13,0,13,0.03
2013-7-10,72.0,63.3,55.2,64.8,56.6,53.2,96,80,55,29.97,29.73,17,2,17,0.03
2013-7-11,79.4,66.0,50.9,60.4,55.7,50.1,100,73,40,30.09,29.97,11,0,11,0.01
2013-7-12,80.7,70.4,57.8,63.3,59.9,56.1,97,71,51,30.05,29.93,17,2,19,0.02
2013-7-13,81.5,73.5,67.4,67.5,62.7,58.9,78,69,58,30.06,29.94,15,2,15,0.02
2013-7-14,83.3,75.2,68.0,67.2,63.7,61.0,85,69,50,30.12,30.06,16,2,16,0.01
2013-7-15,86.2,79.4,68.0,71.1,68.1,65.1,94,70,51,30.22,30.13,12,1,12,0.01
2013-7-16,88.1,79.3,70.6,74.3,71.7,68.8,96,79,58,30.16,30.06,15,1,15,0.01
2013-7-17,88.2,79.4,70.1,71.7,69.8,68.1,94,74,55,30.16,30.02,16,1,16,0.00
2013-7-18,88.5,79.8,70.4,74.1,70.8,68.6,97,75,57,30.03,29.61,23,2,23,0.01
2013-7-19,79.8,73.5,61.0,72.5,65.6,56.6,97,77,52,29.73,29.53,23,2,23,0.00
2013-7-20,70.8,61.9,50.1,58.8,51.0,45.8,89,69,45,29.99,29.73,11,1,11,0.00
2013-7-21,71.4,60.9,50.1,60.7,53.7,46.9,96,78,62,29.99,29.84,10,1,10,0.00
2013-7-22,79.3,65.7,57.8,69.9,61.9,54.0,98,88,64,29.85,29.57,20,2,20,0.28
2013-7-23,66.1,58.2,49.2,54.0,50.0,47.1,93,75,54,29.98,29.68,14,1,15,0.03
2013-7-24,70.3,57.5,46.0,59.8,52.3,44.9,99,84,53,30.05,29.96,13,0,13,0.00
2013-7-25,77.1,62.8,51.7,65.6,58.1,50.9,99,86,58,29.96,29.82,15,1,15,0.00
2013-7-26,68.3,56.5,45.2,60.6,54.1,43.4,100,92,74,29.96,29.79,16,1,16,0.01
2013-7-27,54.6,48.3,44.5,49.9,46.1,43.2,97,92,77,29.93,29.82,9,1,11,0.00
2013-7-28,54.6,51.3,45.6,53.1,49.5,43.3,98,94,89,30.02,29.83,15,1,15,0.01
2013-7-29,59.4,45.5,41.6,52.3,44.3,40.8,100,96,77,30.11,30.00,5,0,5,0.00
2013-7-30,68.3,65.2,61.7,60.9,60.3,59.0,97,84,74,30.07,30.01,10,1,12,0.00
2013-7-31,65.8,61.8,60.2,61.9,60.7,59.3,98,96,87,30.02,29.94,9,1,9,0.00